Alpine Airstrip, AK

7:28 PM AKDT on October 22, 2014 (GMT -0800)
Nuiqsut | Change Station
CLOSE
Current Station
Airport
Location: Nuiqsut,
Elevation: 39 ft
Nearby Weather Stations

Elev 39 ft 70.21 °N, 150.99 °W | Updated 35 minutes ago

Light Snow
Light Snow Mist
24 °F
Feels Like 12 °F
N
13
Wind Variable Wind from East

Today
High -- | Low -- °F
--% Chance of Precip.
Yesterday
High -- | Low -- °F
Precip. -- in
9:51 AM 5:43 PM
Waning Crescent, 1% visible
Pressure 29.96 in
Visibility 5.0 miles
Clouds Overcast 1000 ft
Windchill 12 °F
Dew Point 21 °F
Humidity 88%
Rainfall 0.00 in
Snow Depth Not available.
UV 0 out of 12
Pollen Not available.
Air Quality Not available.
Flu Activity Sporadic
METAR PAQT 230253Z AUTO 08011KT 5SM -SN BR OVC010 M04/M06 A2995 RMK SLP144 P0000 60000 T10441061 51006 TSNO $ VIA AUTODIAL

More Conditions Fewer Conditions

Pressure 29.96 in
Visibility 5.0 miles
Clouds Overcast 1000 ft
Windchill 12 °F
Dew Point 21 °F
Humidity 88%
Rainfall 0.00 in
Snow Depth Not available.
UV 0 out of 12
Pollen Not available.
Air Quality Not available.
Flu Activity Sporadic
METAR PAQT 230253Z AUTO 08011KT 5SM -SN BR OVC010 M04/M06 A2995 RMK SLP144 P0000 60000 T10441061 51006 TSNO $ VIA AUTODIAL

More Conditions Fewer Conditions

10-Day Weather Forecast

Almanac

Astronomy

Oct. 22, 2014 Rise Set
Actual Time 9:51 AM AKDT 5:43 PM AKDT
Civil Twilight 8:43 AM AKDT 6:51 PM AKDT
Nautical Twilight 7:30 AM AKDT 8:03 PM AKDT
Astronomical Twilight 6:17 AM AKDT 9:15 PM AKDT
Moon 8:05 AM AKDT (10/22) 5:41 PM AKDT (10/22)
Length of Visible Light 10h 08m
Length of Day
7h 52m
Tomorrow will be 9m 32s shorter.
Waning Crescent, 1% of the Moon is Illuminated
Today
Waning Crescent
Oct 23
New
Oct 30
First Quarter
Nov 6
Full
Nov 14
Last Quarter

Today's Extremes

State Highs State Lows

Community

WunderPhotos

Upload Photos

1,764,128 photos uploaded!

Nearby

Snow Depth

Station Depth Elevation
Imnaviat Creek 22 in 3050 ft
Atigun Pass 15 in 4800 ft
Coldfoot 5 in 1040 ft
Gobblers Knob 1 in 2030 ft
Fort Yukon 3 in 430 ft

Earthquake Activity

City Distance Mag. Time & Date
No recent earthquake activity has been reported nearby.
Minimum magnitude displayed is 2.5.

Coastal Water Temperatures

Place Temperature
No Stations Reporting

Nearby Weather Stations